sensor_id;sensor_type;location;lat;lon;timestamp;P1;durP1;ratioP1;P2;durP2;ratioP2
15202;SDS011;7702;51.046;5.184;2023-07-31T00:01:30;10.97;;;4.23;;
15202;SDS011;7702;51.046;5.184;2023-07-31T00:03:56;7.10;;;4.13;;
15202;SDS011;7702;51.046;5.184;2023-07-31T00:06:22;9.87;;;4.53;;
15202;SDS011;7702;51.046;5.184;2023-07-31T00:08:48;11.73;;;3.97;;
15202;SDS011;7702;51.046;5.184;2023-07-31T00:11:13;11.50;;;3.97;;
15202;SDS011;7702;51.046;5.184;2023-07-31T00:13:39;9.90;;;4.33;;
15202;SDS011;7702;51.046;5.184;2023-07-31T00:16:05;12.27;;;4.83;;
15202;SDS011;7702;51.046;5.184;2023-07-31T00:18:31;8.30;;;3.87;;
15202;SDS011;7702;51.046;5.184;2023-07-31T00:20:57;9.53;;;4.23;;
15202;SDS011;7702;51.046;5.184;2023-07-31T00:23:22;7.30;;;4.00;;
15202;SDS011;7702;51.046;5.184;2023-07-31T00:25:48;12.87;;;4.87;;
15202;SDS011;7702;51.046;5.184;2023-07-31T00:28:13;11.17;;;4.63;;
15202;SDS011;7702;51.046;5.184;2023-07-31T00:30:39;11.87;;;4.50;;
15202;SDS011;7702;51.046;5.184;2023-07-31T00:33:05;10.23;;;4.53;;
15202;SDS011;7702;51.046;5.184;2023-07-31T00:35:31;11.47;;;4.73;;
15202;SDS011;7702;51.046;5.184;2023-07-31T00:37:57;10.70;;;4.70;;
15202;SDS011;7702;51.046;5.184;2023-07-31T00:40:23;15.17;;;4.57;;
15202;SDS011;7702;51.046;5.184;2023-07-31T00:42:49;10.47;;;4.20;;
15202;SDS011;7702;51.046;5.184;2023-07-31T00:45:15;10.80;;;4.20;;
15202;SDS011;7702;51.046;5.184;2023-07-31T00:47:40;8.50;;;4.47;;
15202;SDS011;7702;51.046;5.184;2023-07-31T00:50:06;10.50;;;4.37;;
15202;SDS011;7702;51.046;5.184;2023-07-31T00:52:32;11.03;;;4.20;;
15202;SDS011;7702;51.046;5.184;2023-07-31T00:54:58;11.73;;;5.03;;
15202;SDS011;7702;51.046;5.184;2023-07-31T00:57:25;14.07;;;5.00;;
15202;SDS011;7702;51.046;5.184;2023-07-31T00:59:51;10.63;;;4.83;;
15202;SDS011;7702;51.046;5.184;2023-07-31T01:02:17;12.07;;;5.17;;
15202;SDS011;7702;51.046;5.184;2023-07-31T01:04:43;13.23;;;4.80;;
15202;SDS011;7702;51.046;5.184;2023-07-31T01:09:40;12.40;;;4.70;;
15202;SDS011;7702;51.046;5.184;2023-07-31T01:12:22;12.13;;;4.83;;
15202;SDS011;7702;51.046;5.184;2023-07-31T01:15:05;12.43;;;4.90;;
15202;SDS011;7702;51.046;5.184;2023-07-31T01:17:35;11.07;;;4.93;;
15202;SDS011;7702;51.046;5.184;2023-07-31T01:20:26;9.43;;;4.33;;
15202;SDS011;7702;51.046;5.184;2023-07-31T01:28:13;11.10;;;5.20;;
15202;SDS011;7702;51.046;5.184;2023-07-31T01:30:43;14.23;;;5.10;;
15202;SDS011;7702;51.046;5.184;2023-07-31T01:33:12;11.57;;;5.73;;
15202;SDS011;7702;51.046;5.184;2023-07-31T01:35:43;10.23;;;5.10;;
15202;SDS011;7702;51.046;5.184;2023-07-31T01:38:09;13.43;;;5.17;;
15202;SDS011;7702;51.046;5.184;2023-07-31T01:40:35;9.93;;;4.70;;
15202;SDS011;7702;51.046;5.184;2023-07-31T01:43:01;10.13;;;4.80;;
15202;SDS011;7702;51.046;5.184;2023-07-31T01:45:27;11.63;;;4.47;;
15202;SDS011;7702;51.046;5.184;2023-07-31T01:47:53;10.23;;;4.53;;
15202;SDS011;7702;51.046;5.184;2023-07-31T01:50:18;11.27;;;4.30;;
15202;SDS011;7702;51.046;5.184;2023-07-31T01:52:44;11.57;;;4.83;;
15202;SDS011;7702;51.046;5.184;2023-07-31T01:55:10;10.70;;;4.50;;
15202;SDS011;7702;51.046;5.184;2023-07-31T01:57:36;10.23;;;4.97;;
15202;SDS011;7702;51.046;5.184;2023-07-31T02:00:02;11.77;;;5.67;;
15202;SDS011;7702;51.046;5.184;2023-07-31T02:02:28;8.87;;;4.90;;
15202;SDS011;7702;51.046;5.184;2023-07-31T02:04:54;11.37;;;4.83;;
15202;SDS011;7702;51.046;5.184;2023-07-31T02:07:20;12.13;;;5.37;;
15202;SDS011;7702;51.046;5.184;2023-07-31T02:09:45;13.97;;;4.97;;
15202;SDS011;7702;51.046;5.184;2023-07-31T02:12:13;11.97;;;4.93;;
15202;SDS011;7702;51.046;5.184;2023-07-31T02:14:39;9.67;;;4.40;;
15202;SDS011;7702;51.046;5.184;2023-07-31T02:17:06;10.67;;;5.73;;
15202;SDS011;7702;51.046;5.184;2023-07-31T02:19:31;11.20;;;5.20;;
15202;SDS011;7702;51.046;5.184;2023-07-31T02:21:57;7.50;;;4.03;;
15202;SDS011;7702;51.046;5.184;2023-07-31T02:24:23;12.80;;;4.97;;
15202;SDS011;7702;51.046;5.184;2023-07-31T02:26:49;7.73;;;4.50;;
15202;SDS011;7702;51.046;5.184;2023-07-31T02:29:15;13.83;;;4.97;;
15202;SDS011;7702;51.046;5.184;2023-07-31T02:31:41;9.73;;;4.17;;
15202;SDS011;7702;51.046;5.184;2023-07-31T02:34:06;9.50;;;5.53;;
15202;SDS011;7702;51.046;5.184;2023-07-31T02:36:32;11.63;;;4.60;;
15202;SDS011;7702;51.046;5.184;2023-07-31T02:38:57;9.70;;;4.20;;
15202;SDS011;7702;51.046;5.184;2023-07-31T02:41:23;7.87;;;4.40;;
15202;SDS011;7702;51.046;5.184;2023-07-31T02:43:49;10.63;;;4.93;;
15202;SDS011;7702;51.046;5.184;2023-07-31T02:46:14;9.80;;;5.30;;
15202;SDS011;7702;51.046;5.184;2023-07-31T02:48:40;10.57;;;4.73;;
15202;SDS011;7702;51.046;5.184;2023-07-31T02:51:06;12.93;;;4.80;;
15202;SDS011;7702;51.046;5.184;2023-07-31T02:53:31;7.00;;;4.27;;
15202;SDS011;7702;51.046;5.184;2023-07-31T02:55:57;9.57;;;4.27;;
15202;SDS011;7702;51.046;5.184;2023-07-31T02:58:23;11.20;;;4.70;;
15202;SDS011;7702;51.046;5.184;2023-07-31T03:00:48;9.33;;;4.40;;
15202;SDS011;7702;51.046;5.184;2023-07-31T03:03:14;8.60;;;4.63;;
15202;SDS011;7702;51.046;5.184;2023-07-31T03:05:40;8.07;;;4.47;;
15202;SDS011;7702;51.046;5.184;2023-07-31T03:08:05;7.67;;;4.50;;
15202;SDS011;7702;51.046;5.184;2023-07-31T03:10:32;10.07;;;4.60;;
15202;SDS011;7702;51.046;5.184;2023-07-31T03:12:57;10.03;;;4.80;;
15202;SDS011;7702;51.046;5.184;2023-07-31T03:15:23;14.00;;;4.50;;
15202;SDS011;7702;51.046;5.184;2023-07-31T03:17:48;8.50;;;4.83;;
15202;SDS011;7702;51.046;5.184;2023-07-31T03:20:14;8.50;;;5.00;;
15202;SDS011;7702;51.046;5.184;2023-07-31T03:22:40;12.67;;;5.30;;
15202;SDS011;7702;51.046;5.184;2023-07-31T03:25:05;9.13;;;5.43;;
15202;SDS011;7702;51.046;5.184;2023-07-31T03:27:31;8.97;;;5.10;;
15202;SDS011;7702;51.046;5.184;2023-07-31T03:29:59;9.67;;;5.40;;
15202;SDS011;7702;51.046;5.184;2023-07-31T03:32:26;8.47;;;5.13;;
15202;SDS011;7702;51.046;5.184;2023-07-31T03:34:51;8.63;;;5.13;;
15202;SDS011;7702;51.046;5.184;2023-07-31T03:37:17;11.10;;;5.60;;
15202;SDS011;7702;51.046;5.184;2023-07-31T03:39:43;8.43;;;5.03;;
15202;SDS011;7702;51.046;5.184;2023-07-31T03:42:09;7.57;;;5.23;;
15202;SDS011;7702;51.046;5.184;2023-07-31T03:44:34;9.33;;;5.00;;
15202;SDS011;7702;51.046;5.184;2023-07-31T03:47:00;8.23;;;5.20;;
15202;SDS011;7702;51.046;5.184;2023-07-31T03:49:25;8.57;;;4.93;;
15202;SDS011;7702;51.046;5.184;2023-07-31T03:51:51;7.77;;;5.13;;
15202;SDS011;7702;51.046;5.184;2023-07-31T03:54:17;9.20;;;5.00;;
15202;SDS011;7702;51.046;5.184;2023-07-31T03:56:42;11.47;;;4.77;;
15202;SDS011;7702;51.046;5.184;2023-07-31T03:59:08;8.73;;;4.73;;
15202;SDS011;7702;51.046;5.184;2023-07-31T04:01:34;8.13;;;5.00;;
15202;SDS011;7702;51.046;5.184;2023-07-31T04:03:59;10.47;;;6.40;;
15202;SDS011;7702;51.046;5.184;2023-07-31T04:06:25;7.00;;;4.80;;
15202;SDS011;7702;51.046;5.184;2023-07-31T04:08:51;10.70;;;4.93;;
15202;SDS011;7702;51.046;5.184;2023-07-31T04:11:16;10.57;;;5.10;;
15202;SDS011;7702;51.046;5.184;2023-07-31T04:13:42;6.37;;;4.50;;
15202;SDS011;7702;51.046;5.184;2023-07-31T04:16:08;7.23;;;4.70;;
15202;SDS011;7702;51.046;5.184;2023-07-31T04:18:34;10.17;;;4.43;;
15202;SDS011;7702;51.046;5.184;2023-07-31T04:21:00;8.90;;;4.90;;
15202;SDS011;7702;51.046;5.184;2023-07-31T04:23:27;5.90;;;4.40;;
15202;SDS011;7702;51.046;5.184;2023-07-31T04:25:53;9.87;;;4.67;;
15202;SDS011;7702;51.046;5.184;2023-07-31T04:28:18;7.57;;;4.13;;
15202;SDS011;7702;51.046;5.184;2023-07-31T04:30:44;7.30;;;5.13;;
15202;SDS011;7702;51.046;5.184;2023-07-31T04:33:10;6.80;;;4.50;;
15202;SDS011;7702;51.046;5.184;2023-07-31T04:35:35;5.30;;;4.13;;
15202;SDS011;7702;51.046;5.184;2023-07-31T04:38:01;6.60;;;5.07;;
15202;SDS011;7702;51.046;5.184;2023-07-31T04:40:27;7.47;;;4.80;;
15202;SDS011;7702;51.046;5.184;2023-07-31T04:42:52;8.20;;;4.87;;
15202;SDS011;7702;51.046;5.184;2023-07-31T04:45:18;8.70;;;4.67;;
15202;SDS011;7702;51.046;5.184;2023-07-31T04:47:44;6.40;;;4.67;;
15202;SDS011;7702;51.046;5.184;2023-07-31T04:50:09;8.27;;;4.73;;
15202;SDS011;7702;51.046;5.184;2023-07-31T04:52:35;7.07;;;4.80;;
15202;SDS011;7702;51.046;5.184;2023-07-31T04:55:01;9.13;;;4.67;;
15202;SDS011;7702;51.046;5.184;2023-07-31T04:57:27;7.53;;;4.23;;
15202;SDS011;7702;51.046;5.184;2023-07-31T04:59:52;6.47;;;4.50;;
15202;SDS011;7702;51.046;5.184;2023-07-31T05:02:18;7.73;;;4.73;;
15202;SDS011;7702;51.046;5.184;2023-07-31T05:04:44;8.77;;;4.63;;
15202;SDS011;7702;51.046;5.184;2023-07-31T05:07:09;6.00;;;4.20;;
15202;SDS011;7702;51.046;5.184;2023-07-31T05:09:35;8.03;;;4.97;;
15202;SDS011;7702;51.046;5.184;2023-07-31T05:12:01;7.67;;;4.60;;
15202;SDS011;7702;51.046;5.184;2023-07-31T05:14:26;8.63;;;4.60;;
15202;SDS011;7702;51.046;5.184;2023-07-31T05:16:52;6.87;;;4.70;;
15202;SDS011;7702;51.046;5.184;2023-07-31T05:19:18;6.77;;;4.60;;
15202;SDS011;7702;51.046;5.184;2023-07-31T05:21:43;7.40;;;4.50;;
15202;SDS011;7702;51.046;5.184;2023-07-31T05:24:10;7.40;;;4.40;;
15202;SDS011;7702;51.046;5.184;2023-07-31T05:26:36;10.23;;;4.77;;
15202;SDS011;7702;51.046;5.184;2023-07-31T05:29:02;6.13;;;4.47;;
15202;SDS011;7702;51.046;5.184;2023-07-31T05:31:28;6.70;;;4.83;;
15202;SDS011;7702;51.046;5.184;2023-07-31T05:33:54;8.23;;;5.10;;
15202;SDS011;7702;51.046;5.184;2023-07-31T05:36:20;7.00;;;4.30;;
15202;SDS011;7702;51.046;5.184;2023-07-31T05:38:46;9.63;;;4.53;;
15202;SDS011;7702;51.046;5.184;2023-07-31T05:41:12;6.27;;;4.70;;
15202;SDS011;7702;51.046;5.184;2023-07-31T05:43:38;8.27;;;4.97;;
15202;SDS011;7702;51.046;5.184;2023-07-31T05:46:03;8.90;;;4.77;;
15202;SDS011;7702;51.046;5.184;2023-07-31T05:48:29;7.17;;;4.07;;
15202;SDS011;7702;51.046;5.184;2023-07-31T05:50:55;9.13;;;4.60;;
15202;SDS011;7702;51.046;5.184;2023-07-31T05:53:21;7.00;;;4.17;;
15202;SDS011;7702;51.046;5.184;2023-07-31T05:55:46;6.83;;;4.53;;
15202;SDS011;7702;51.046;5.184;2023-07-31T05:58:12;5.53;;;4.30;;
15202;SDS011;7702;51.046;5.184;2023-07-31T06:00:39;6.53;;;4.33;;
15202;SDS011;7702;51.046;5.184;2023-07-31T06:03:06;8.93;;;4.47;;
15202;SDS011;7702;51.046;5.184;2023-07-31T06:05:31;8.27;;;4.97;;
15202;SDS011;7702;51.046;5.184;2023-07-31T06:07:57;8.00;;;4.50;;
15202;SDS011;7702;51.046;5.184;2023-07-31T06:10:23;6.20;;;4.03;;
15202;SDS011;7702;51.046;5.184;2023-07-31T06:12:48;5.43;;;4.10;;
15202;SDS011;7702;51.046;5.184;2023-07-31T06:15:14;9.87;;;5.30;;
15202;SDS011;7702;51.046;5.184;2023-07-31T06:17:40;8.47;;;4.50;;
15202;SDS011;7702;51.046;5.184;2023-07-31T06:20:06;7.33;;;4.37;;
15202;SDS011;7702;51.046;5.184;2023-07-31T06:22:32;10.00;;;5.40;;
15202;SDS011;7702;51.046;5.184;2023-07-31T06:24:58;6.97;;;4.27;;
15202;SDS011;7702;51.046;5.184;2023-07-31T06:27:23;6.87;;;4.37;;
15202;SDS011;7702;51.046;5.184;2023-07-31T06:29:49;8.37;;;4.40;;
15202;SDS011;7702;51.046;5.184;2023-07-31T06:32:15;6.07;;;3.70;;
15202;SDS011;7702;51.046;5.184;2023-07-31T06:34:40;7.87;;;4.13;;
15202;SDS011;7702;51.046;5.184;2023-07-31T06:37:06;7.53;;;3.60;;
15202;SDS011;7702;51.046;5.184;2023-07-31T06:39:32;7.87;;;4.13;;
15202;SDS011;7702;51.046;5.184;2023-07-31T06:41:57;6.90;;;4.37;;
15202;SDS011;7702;51.046;5.184;2023-07-31T06:44:23;7.17;;;4.57;;
15202;SDS011;7702;51.046;5.184;2023-07-31T06:46:49;7.53;;;4.23;;
15202;SDS011;7702;51.046;5.184;2023-07-31T06:49:14;5.70;;;4.07;;
15202;SDS011;7702;51.046;5.184;2023-07-31T06:51:40;8.10;;;4.27;;
15202;SDS011;7702;51.046;5.184;2023-07-31T06:54:07;8.80;;;4.23;;
15202;SDS011;7702;51.046;5.184;2023-07-31T06:56:33;7.33;;;4.43;;
15202;SDS011;7702;51.046;5.184;2023-07-31T06:59:00;7.20;;;4.20;;
15202;SDS011;7702;51.046;5.184;2023-07-31T07:01:26;7.07;;;4.20;;
15202;SDS011;7702;51.046;5.184;2023-07-31T07:03:53;6.17;;;4.87;;
15202;SDS011;7702;51.046;5.184;2023-07-31T07:06:19;6.63;;;3.97;;
15202;SDS011;7702;51.046;5.184;2023-07-31T07:08:45;6.27;;;4.10;;
15202;SDS011;7702;51.046;5.184;2023-07-31T07:11:10;7.27;;;4.17;;
15202;SDS011;7702;51.046;5.184;2023-07-31T07:13:36;7.23;;;3.90;;
15202;SDS011;7702;51.046;5.184;2023-07-31T07:16:02;8.53;;;4.40;;
15202;SDS011;7702;51.046;5.184;2023-07-31T07:18:27;9.63;;;4.20;;
15202;SDS011;7702;51.046;5.184;2023-07-31T07:20:53;6.33;;;3.90;;
15202;SDS011;7702;51.046;5.184;2023-07-31T07:23:19;9.17;;;4.30;;
15202;SDS011;7702;51.046;5.184;2023-07-31T07:25:46;6.20;;;4.67;;
15202;SDS011;7702;51.046;5.184;2023-07-31T07:28:12;11.03;;;5.13;;
15202;SDS011;7702;51.046;5.184;2023-07-31T07:30:38;7.10;;;4.47;;
15202;SDS011;7702;51.046;5.184;2023-07-31T07:33:04;8.03;;;4.50;;
15202;SDS011;7702;51.046;5.184;2023-07-31T07:35:34;7.33;;;4.70;;
15202;SDS011;7702;51.046;5.184;2023-07-31T07:38:04;8.20;;;5.00;;
15202;SDS011;7702;51.046;5.184;2023-07-31T07:40:29;6.30;;;3.77;;
15202;SDS011;7702;51.046;5.184;2023-07-31T07:42:55;7.07;;;4.50;;
15202;SDS011;7702;51.046;5.184;2023-07-31T07:45:21;6.97;;;4.03;;
15202;SDS011;7702;51.046;5.184;2023-07-31T07:47:47;6.33;;;5.23;;
15202;SDS011;7702;51.046;5.184;2023-07-31T07:50:12;6.40;;;4.00;;
15202;SDS011;7702;51.046;5.184;2023-07-31T07:52:38;8.07;;;4.27;;
15202;SDS011;7702;51.046;5.184;2023-07-31T07:55:04;7.47;;;3.70;;
15202;SDS011;7702;51.046;5.184;2023-07-31T07:57:30;7.47;;;3.70;;
15202;SDS011;7702;51.046;5.184;2023-07-31T07:59:55;6.07;;;3.63;;
15202;SDS011;7702;51.046;5.184;2023-07-31T08:02:21;7.43;;;3.77;;
15202;SDS011;7702;51.046;5.184;2023-07-31T08:04:47;4.77;;;3.77;;
15202;SDS011;7702;51.046;5.184;2023-07-31T08:07:13;5.30;;;4.07;;
15202;SDS011;7702;51.046;5.184;2023-07-31T08:09:39;5.43;;;3.20;;
15202;SDS011;7702;51.046;5.184;2023-07-31T08:12:05;4.87;;;3.43;;
15202;SDS011;7702;51.046;5.184;2023-07-31T08:14:31;6.63;;;3.60;;
15202;SDS011;7702;51.046;5.184;2023-07-31T08:16:57;6.63;;;3.73;;
15202;SDS011;7702;51.046;5.184;2023-07-31T08:19:23;6.87;;;3.53;;
15202;SDS011;7702;51.046;5.184;2023-07-31T08:21:49;6.30;;;3.37;;
15202;SDS011;7702;51.046;5.184;2023-07-31T08:24:15;5.57;;;3.40;;
15202;SDS011;7702;51.046;5.184;2023-07-31T08:26:40;5.70;;;3.30;;
15202;SDS011;7702;51.046;5.184;2023-07-31T08:29:06;7.30;;;4.10;;
15202;SDS011;7702;51.046;5.184;2023-07-31T08:31:31;7.37;;;3.90;;
15202;SDS011;7702;51.046;5.184;2023-07-31T08:33:57;5.50;;;3.90;;
15202;SDS011;7702;51.046;5.184;2023-07-31T08:36:23;7.03;;;3.97;;
15202;SDS011;7702;51.046;5.184;2023-07-31T08:38:48;4.57;;;4.10;;
15202;SDS011;7702;51.046;5.184;2023-07-31T08:41:15;6.53;;;4.20;;
15202;SDS011;7702;51.046;5.184;2023-07-31T08:43:42;7.27;;;3.83;;
15202;SDS011;7702;51.046;5.184;2023-07-31T08:46:10;5.57;;;3.80;;
15202;SDS011;7702;51.046;5.184;2023-07-31T08:48:36;7.00;;;3.80;;
15202;SDS011;7702;51.046;5.184;2023-07-31T08:51:05;5.00;;;3.73;;
15202;SDS011;7702;51.046;5.184;2023-07-31T08:53:32;6.93;;;3.63;;
15202;SDS011;7702;51.046;5.184;2023-07-31T08:55:58;5.03;;;3.57;;
15202;SDS011;7702;51.046;5.184;2023-07-31T08:58:25;3.47;;;3.13;;
15202;SDS011;7702;51.046;5.184;2023-07-31T09:00:55;6.30;;;3.67;;
15202;SDS011;7702;51.046;5.184;2023-07-31T09:03:22;5.83;;;3.57;;
15202;SDS011;7702;51.046;5.184;2023-07-31T09:05:50;4.73;;;3.40;;
15202;SDS011;7702;51.046;5.184;2023-07-31T09:08:17;5.33;;;3.30;;
15202;SDS011;7702;51.046;5.184;2023-07-31T09:10:45;6.30;;;3.47;;
15202;SDS011;7702;51.046;5.184;2023-07-31T09:13:12;4.13;;;3.30;;
15202;SDS011;7702;51.046;5.184;2023-07-31T09:15:38;3.23;;;2.80;;
15202;SDS011;7702;51.046;5.184;2023-07-31T09:18:06;4.20;;;2.83;;
15202;SDS011;7702;51.046;5.184;2023-07-31T09:20:33;5.27;;;3.33;;
15202;SDS011;7702;51.046;5.184;2023-07-31T09:23:09;5.07;;;3.00;;
15202;SDS011;7702;51.046;5.184;2023-07-31T09:25:37;3.73;;;3.07;;
15202;SDS011;7702;51.046;5.184;2023-07-31T09:28:07;3.67;;;3.07;;
15202;SDS011;7702;51.046;5.184;2023-07-31T09:30:44;4.30;;;2.63;;
15202;SDS011;7702;51.046;5.184;2023-07-31T09:33:12;4.37;;;3.10;;
15202;SDS011;7702;51.046;5.184;2023-07-31T09:35:39;3.97;;;2.80;;
15202;SDS011;7702;51.046;5.184;2023-07-31T09:38:09;4.27;;;2.63;;
15202;SDS011;7702;51.046;5.184;2023-07-31T09:40:37;4.80;;;3.17;;
15202;SDS011;7702;51.046;5.184;2023-07-31T09:43:05;6.40;;;2.87;;
15202;SDS011;7702;51.046;5.184;2023-07-31T09:45:35;4.67;;;2.90;;
15202;SDS011;7702;51.046;5.184;2023-07-31T09:48:02;3.97;;;2.77;;
15202;SDS011;7702;51.046;5.184;2023-07-31T09:50:28;4.30;;;2.40;;
15202;SDS011;7702;51.046;5.184;2023-07-31T09:52:55;3.30;;;2.70;;
15202;SDS011;7702;51.046;5.184;2023-07-31T09:55:20;4.87;;;2.30;;
15202;SDS011;7702;51.046;5.184;2023-07-31T09:57:48;3.40;;;2.20;;
15202;SDS011;7702;51.046;5.184;2023-07-31T10:00:15;2.93;;;2.50;;
15202;SDS011;7702;51.046;5.184;2023-07-31T10:02:44;4.40;;;2.43;;
15202;SDS011;7702;51.046;5.184;2023-07-31T10:05:12;3.13;;;2.70;;
15202;SDS011;7702;51.046;5.184;2023-07-31T10:07:40;4.00;;;2.63;;
15202;SDS011;7702;51.046;5.184;2023-07-31T10:10:19;2.53;;;2.27;;
15202;SDS011;7702;51.046;5.184;2023-07-31T10:12:46;3.73;;;2.43;;
15202;SDS011;7702;51.046;5.184;2023-07-31T10:15:14;3.37;;;2.63;;
15202;SDS011;7702;51.046;5.184;2023-07-31T10:17:40;4.20;;;2.70;;
15202;SDS011;7702;51.046;5.184;2023-07-31T10:20:06;3.90;;;2.80;;
15202;SDS011;7702;51.046;5.184;2023-07-31T10:22:33;3.70;;;2.37;;
15202;SDS011;7702;51.046;5.184;2023-07-31T10:24:59;4.00;;;2.57;;
15202;SDS011;7702;51.046;5.184;2023-07-31T10:27:26;4.80;;;2.80;;
15202;SDS011;7702;51.046;5.184;2023-07-31T10:29:55;4.40;;;2.90;;
15202;SDS011;7702;51.046;5.184;2023-07-31T10:32:22;4.47;;;2.70;;
15202;SDS011;7702;51.046;5.184;2023-07-31T10:34:50;3.47;;;2.80;;
15202;SDS011;7702;51.046;5.184;2023-07-31T10:37:24;3.87;;;2.83;;
15202;SDS011;7702;51.046;5.184;2023-07-31T10:42:37;5.00;;;2.47;;
15202;SDS011;7702;51.046;5.184;2023-07-31T10:45:12;4.90;;;2.93;;
15202;SDS011;7702;51.046;5.184;2023-07-31T10:47:39;6.00;;;2.93;;
15202;SDS011;7702;51.046;5.184;2023-07-31T10:50:20;3.80;;;2.80;;
15202;SDS011;7702;51.046;5.184;2023-07-31T10:55:24;5.07;;;3.10;;
15202;SDS011;7702;51.046;5.184;2023-07-31T10:57:50;3.70;;;3.07;;
15202;SDS011;7702;51.046;5.184;2023-07-31T11:02:56;5.30;;;3.13;;
15202;SDS011;7702;51.046;5.184;2023-07-31T11:05:29;5.97;;;3.03;;
15202;SDS011;7702;51.046;5.184;2023-07-31T11:10:49;4.90;;;3.27;;
15202;SDS011;7702;51.046;5.184;2023-07-31T11:13:33;5.27;;;3.37;;
15202;SDS011;7702;51.046;5.184;2023-07-31T11:16:09;6.90;;;3.53;;
15202;SDS011;7702;51.046;5.184;2023-07-31T11:18:37;5.83;;;3.77;;
15202;SDS011;7702;51.046;5.184;2023-07-31T11:21:05;6.43;;;3.90;;
15202;SDS011;7702;51.046;5.184;2023-07-31T11:23:31;7.20;;;4.10;;
15202;SDS011;7702;51.046;5.184;2023-07-31T11:26:00;6.00;;;3.70;;
15202;SDS011;7702;51.046;5.184;2023-07-31T11:28:30;5.10;;;3.67;;
15202;SDS011;7702;51.046;5.184;2023-07-31T11:31:00;6.57;;;3.80;;
15202;SDS011;7702;51.046;5.184;2023-07-31T11:33:26;5.13;;;3.67;;
15202;SDS011;7702;51.046;5.184;2023-07-31T11:35:53;6.77;;;3.83;;
15202;SDS011;7702;51.046;5.184;2023-07-31T11:40:49;4.83;;;3.77;;
15202;SDS011;7702;51.046;5.184;2023-07-31T11:43:15;6.27;;;3.73;;
15202;SDS011;7702;51.046;5.184;2023-07-31T11:45:54;6.17;;;4.30;;
15202;SDS011;7702;51.046;5.184;2023-07-31T11:48:28;6.53;;;4.17;;
15202;SDS011;7702;51.046;5.184;2023-07-31T11:50:58;7.40;;;4.70;;
15202;SDS011;7702;51.046;5.184;2023-07-31T11:56:03;6.57;;;4.20;;
15202;SDS011;7702;51.046;5.184;2023-07-31T11:58:30;5.63;;;3.80;;
15202;SDS011;7702;51.046;5.184;2023-07-31T12:00:59;6.43;;;4.13;;
15202;SDS011;7702;51.046;5.184;2023-07-31T12:03:25;6.43;;;4.10;;
15202;SDS011;7702;51.046;5.184;2023-07-31T12:05:55;7.77;;;4.30;;
15202;SDS011;7702;51.046;5.184;2023-07-31T12:08:21;7.87;;;4.67;;
15202;SDS011;7702;51.046;5.184;2023-07-31T12:10:49;5.73;;;4.40;;
15202;SDS011;7702;51.046;5.184;2023-07-31T12:13:20;7.80;;;4.83;;
15202;SDS011;7702;51.046;5.184;2023-07-31T12:15:48;5.40;;;3.97;;
15202;SDS011;7702;51.046;5.184;2023-07-31T12:18:15;7.73;;;4.13;;
15202;SDS011;7702;51.046;5.184;2023-07-31T12:20:45;7.50;;;3.90;;
15202;SDS011;7702;51.046;5.184;2023-07-31T12:23:21;6.67;;;3.90;;
15202;SDS011;7702;51.046;5.184;2023-07-31T12:28:34;5.50;;;4.00;;
15202;SDS011;7702;51.046;5.184;2023-07-31T12:31:02;5.97;;;3.80;;
15202;SDS011;7702;51.046;5.184;2023-07-31T12:33:36;7.60;;;4.53;;
15202;SDS011;7702;51.046;5.184;2023-07-31T12:36:04;9.40;;;4.40;;
15202;SDS011;7702;51.046;5.184;2023-07-31T12:38:32;6.70;;;4.00;;
15202;SDS011;7702;51.046;5.184;2023-07-31T12:40:58;6.87;;;5.00;;
15202;SDS011;7702;51.046;5.184;2023-07-31T12:43:24;6.77;;;4.57;;
15202;SDS011;7702;51.046;5.184;2023-07-31T12:45:50;7.17;;;4.10;;
15202;SDS011;7702;51.046;5.184;2023-07-31T12:48:16;5.43;;;4.20;;
15202;SDS011;7702;51.046;5.184;2023-07-31T12:50:41;7.17;;;4.73;;
15202;SDS011;7702;51.046;5.184;2023-07-31T12:53:07;8.63;;;4.10;;
15202;SDS011;7702;51.046;5.184;2023-07-31T12:55:33;6.07;;;4.20;;
15202;SDS011;7702;51.046;5.184;2023-07-31T12:58:00;7.27;;;3.70;;
15202;SDS011;7702;51.046;5.184;2023-07-31T13:00:26;8.03;;;4.13;;
15202;SDS011;7702;51.046;5.184;2023-07-31T13:02:51;7.63;;;4.47;;
15202;SDS011;7702;51.046;5.184;2023-07-31T13:05:17;5.93;;;4.33;;
15202;SDS011;7702;51.046;5.184;2023-07-31T13:07:44;5.47;;;3.60;;
15202;SDS011;7702;51.046;5.184;2023-07-31T13:10:10;7.50;;;4.20;;
15202;SDS011;7702;51.046;5.184;2023-07-31T13:12:36;5.43;;;4.43;;
15202;SDS011;7702;51.046;5.184;2023-07-31T13:15:02;8.90;;;4.17;;
15202;SDS011;7702;51.046;5.184;2023-07-31T13:17:28;6.77;;;4.20;;
15202;SDS011;7702;51.046;5.184;2023-07-31T13:19:54;6.80;;;4.03;;
15202;SDS011;7702;51.046;5.184;2023-07-31T13:22:20;11.23;;;4.73;;
15202;SDS011;7702;51.046;5.184;2023-07-31T13:24:45;6.53;;;4.60;;
15202;SDS011;7702;51.046;5.184;2023-07-31T13:27:11;6.57;;;4.03;;
15202;SDS011;7702;51.046;5.184;2023-07-31T13:29:37;6.37;;;4.30;;
15202;SDS011;7702;51.046;5.184;2023-07-31T13:32:02;7.27;;;4.33;;
15202;SDS011;7702;51.046;5.184;2023-07-31T13:34:28;6.33;;;4.57;;
15202;SDS011;7702;51.046;5.184;2023-07-31T13:36:55;7.10;;;4.20;;
15202;SDS011;7702;51.046;5.184;2023-07-31T13:39:21;7.87;;;4.43;;
15202;SDS011;7702;51.046;5.184;2023-07-31T13:41:47;6.23;;;4.17;;
15202;SDS011;7702;51.046;5.184;2023-07-31T13:44:12;6.13;;;4.10;;
15202;SDS011;7702;51.046;5.184;2023-07-31T13:46:39;6.10;;;4.03;;
15202;SDS011;7702;51.046;5.184;2023-07-31T13:49:04;5.87;;;4.13;;
15202;SDS011;7702;51.046;5.184;2023-07-31T13:51:30;5.53;;;3.53;;
15202;SDS011;7702;51.046;5.184;2023-07-31T13:53:56;6.53;;;4.23;;
15202;SDS011;7702;51.046;5.184;2023-07-31T13:56:21;6.20;;;3.97;;
15202;SDS011;7702;51.046;5.184;2023-07-31T13:58:47;7.40;;;3.73;;
15202;SDS011;7702;51.046;5.184;2023-07-31T14:01:13;7.00;;;3.43;;
15202;SDS011;7702;51.046;5.184;2023-07-31T14:03:39;7.73;;;4.07;;
15202;SDS011;7702;51.046;5.184;2023-07-31T14:06:04;5.63;;;4.00;;
15202;SDS011;7702;51.046;5.184;2023-07-31T14:08:30;5.37;;;3.93;;
15202;SDS011;7702;51.046;5.184;2023-07-31T14:10:56;12.77;;;4.40;;
15202;SDS011;7702;51.046;5.184;2023-07-31T14:13:22;7.33;;;4.20;;
15202;SDS011;7702;51.046;5.184;2023-07-31T14:15:47;5.73;;;4.23;;
15202;SDS011;7702;51.046;5.184;2023-07-31T14:18:14;6.43;;;4.30;;
15202;SDS011;7702;51.046;5.184;2023-07-31T14:20:40;8.50;;;4.30;;
15202;SDS011;7702;51.046;5.184;2023-07-31T14:23:05;8.13;;;4.00;;
15202;SDS011;7702;51.046;5.184;2023-07-31T14:25:31;6.47;;;4.27;;
15202;SDS011;7702;51.046;5.184;2023-07-31T14:27:57;8.37;;;4.20;;
15202;SDS011;7702;51.046;5.184;2023-07-31T14:30:22;6.20;;;3.50;;
15202;SDS011;7702;51.046;5.184;2023-07-31T14:32:48;7.20;;;4.97;;
15202;SDS011;7702;51.046;5.184;2023-07-31T14:35:14;5.27;;;3.50;;
15202;SDS011;7702;51.046;5.184;2023-07-31T14:37:40;6.90;;;3.53;;
15202;SDS011;7702;51.046;5.184;2023-07-31T14:40:08;5.87;;;3.73;;
15202;SDS011;7702;51.046;5.184;2023-07-31T14:42:36;5.57;;;3.63;;
15202;SDS011;7702;51.046;5.184;2023-07-31T14:45:03;4.80;;;3.27;;
15202;SDS011;7702;51.046;5.184;2023-07-31T14:47:29;7.97;;;3.37;;
15202;SDS011;7702;51.046;5.184;2023-07-31T14:49:57;5.03;;;3.20;;
15202;SDS011;7702;51.046;5.184;2023-07-31T14:52:23;5.63;;;2.87;;
15202;SDS011;7702;51.046;5.184;2023-07-31T14:54:48;4.27;;;2.67;;
15202;SDS011;7702;51.046;5.184;2023-07-31T14:57:14;4.07;;;2.57;;
15202;SDS011;7702;51.046;5.184;2023-07-31T14:59:40;3.37;;;2.77;;
15202;SDS011;7702;51.046;5.184;2023-07-31T15:02:06;5.33;;;2.90;;
15202;SDS011;7702;51.046;5.184;2023-07-31T15:04:33;3.23;;;2.30;;
15202;SDS011;7702;51.046;5.184;2023-07-31T15:06:59;4.67;;;2.07;;
15202;SDS011;7702;51.046;5.184;2023-07-31T15:09:24;3.17;;;2.40;;
15202;SDS011;7702;51.046;5.184;2023-07-31T15:11:50;3.13;;;2.13;;
15202;SDS011;7702;51.046;5.184;2023-07-31T15:14:15;3.63;;;2.50;;
15202;SDS011;7702;51.046;5.184;2023-07-31T15:16:41;2.43;;;1.97;;
15202;SDS011;7702;51.046;5.184;2023-07-31T15:19:07;4.13;;;2.47;;
15202;SDS011;7702;51.046;5.184;2023-07-31T15:21:33;3.03;;;2.23;;